Time;durP1;ratioP1;P1;durP2;ratioP2;P2;SDS_P1;SDS_P2;PMS_P1;PMS_P2;Temp;Humidity;BMP_temperature;BMP_pressure;BME280_temperature;BME280_humidity;BME280_pressure;Samples;Min_cycle;Max_cycle;Signal;HPM_P1;HPM_P2
2021/04/14 00:01:16;;;;;;;4.10;1.58;;;;;;;10.21;67.51;94347.19;2985702;39;20464;-84
2021/04/14 00:03:28;;;;;;;5.18;1.55;;;;;;;9.92;67.69;94344.28;2983885;39;20043;-86
2021/04/14 00:05:36;;;;;;;3.85;1.80;;;;;;;9.92;67.40;94342.47;2980470;39;20144;-72
2021/04/14 00:07:39;;;;;;;2.65;1.58;;;;;;;10.00;67.21;94341.63;2978400;39;20851;-72
2021/04/14 00:09:41;;;;;;;3.28;1.60;;;;;;;10.05;66.32;94344.59;2983940;39;20080;-71
2021/04/14 00:11:42;;;;;;;2.72;1.77;;;;;;;10.09;67.16;94339.81;2979929;39;20579;-71
2021/04/14 00:13:44;;;;;;;3.35;1.63;;;;;;;10.00;67.98;94349.47;2981963;39;20056;-73
2021/04/14 00:16:32;;;;;;;3.42;1.70;;;;;;;10.05;68.20;94348.03;2970818;40;20589;-71
2021/04/14 00:18:33;;;;;;;4.65;1.73;;;;;;;10.02;67.61;94344.91;2980881;39;20059;-71
2021/04/14 00:20:35;;;;;;;3.58;1.75;;;;;;;10.04;68.16;94340.31;2981577;39;20087;-72
2021/04/14 00:22:36;;;;;;;2.95;1.73;;;;;;;10.10;68.80;94333.63;2970513;39;20064;-71
2021/04/14 00:24:38;;;;;;;3.17;1.70;;;;;;;10.13;68.97;94328.88;2973429;39;20059;-71
2021/04/14 00:26:39;;;;;;;2.83;1.42;;;;;;;10.13;68.75;94336.75;2981822;39;20386;-72
2021/04/14 00:28:42;;;;;;;5.85;1.70;;;;;;;10.11;69.67;94333.47;2977939;39;20056;-72
2021/04/14 00:30:44;;;;;;;4.63;1.58;;;;;;;10.03;69.28;94339.50;2974371;39;20084;-85
2021/04/14 00:32:46;;;;;;;5.18;2.05;;;;;;;10.02;69.70;94335.28;2967087;40;20044;-84
2021/04/14 00:34:47;;;;;;;6.75;2.03;;;;;;;10.00;69.92;94339.00;2980719;39;20080;-84
2021/04/14 00:36:49;;;;;;;4.20;1.75;;;;;;;9.95;69.83;94343.94;2980546;39;20073;-85
2021/04/14 00:38:50;;;;;;;6.75;2.03;;;;;;;9.86;70.47;94350.16;2983667;39;20079;-84
2021/04/14 00:40:58;;;;;;;3.08;1.83;;;;;;;9.82;71.16;94357.50;2990159;39;20040;-82
2021/04/14 00:42:59;;;;;;;2.67;1.45;;;;;;;9.81;70.94;94367.16;2992641;39;20028;-84
2021/04/14 00:45:01;;;;;;;3.08;1.55;;;;;;;9.73;71.62;94367.13;2992748;39;20055;-85
2021/04/14 00:47:02;;;;;;;1.98;1.13;;;;;;;9.58;70.94;94355.69;2985116;40;20075;-84
2021/04/14 00:49:03;;;;;;;4.65;1.58;;;;;;;9.55;70.39;94361.22;2997135;39;20388;-85
2021/04/14 00:51:06;;;;;;;4.50;1.33;;;;;;;9.50;71.27;94345.19;3001646;39;20069;-87
2021/04/14 00:53:08;;;;;;;1.80;1.20;;;;;;;9.49;71.37;94346.19;3004677;39;20415;-86
2021/04/14 00:55:13;;;;;;;3.88;1.30;;;;;;;9.45;72.21;94363.19;2985740;39;20076;-85
2021/04/14 00:57:15;;;;;;;3.67;1.52;;;;;;;9.40;72.17;94359.25;2991239;39;20076;-86
2021/04/14 00:59:16;;;;;;;2.25;1.35;;;;;;;9.42;72.65;94364.28;2988662;39;20056;-85
2021/04/14 01:01:17;;;;;;;2.35;1.30;;;;;;;9.39;72.42;94357.59;2998331;39;20066;-84
2021/04/14 01:03:20;;;;;;;1.90;1.30;;;;;;;9.41;72.85;94363.47;2988707;39;20066;-85
2021/04/14 01:05:21;;;;;;;3.20;1.23;;;;;;;9.37;72.08;94366.59;2987890;39;20043;-84
2021/04/14 01:07:22;;;;;;;1.75;1.10;;;;;;;9.31;72.91;94373.25;2984468;39;20055;-85
2021/04/14 01:09:24;;;;;;;2.97;1.48;;;;;;;9.31;73.37;94375.88;2998129;39;20135;-87
2021/04/14 01:11:27;;;;;;;3.80;1.58;;;;;;;9.26;73.54;94374.72;2998484;39;20067;-85
2021/04/14 01:13:28;;;;;;;2.70;1.30;;;;;;;9.17;73.69;94377.31;3004719;39;20027;-85
2021/04/14 01:15:35;;;;;;;2.00;1.20;;;;;;;9.16;73.19;94386.16;3000808;39;20063;-86
2021/04/14 01:17:37;;;;;;;2.15;1.10;;;;;;;9.09;72.52;94379.06;2997028;39;20143;-85
2021/04/14 01:19:38;;;;;;;2.35;1.42;;;;;;;9.05;72.24;94388.19;2986802;39;20056;-86
2021/04/14 01:21:42;;;;;;;2.28;1.25;;;;;;;9.02;72.80;94390.16;2994220;39;20451;-84
2021/04/14 01:23:43;;;;;;;2.20;1.40;;;;;;;8.99;73.06;94384.41;2996624;39;20056;-84
2021/04/14 01:25:45;;;;;;;2.42;1.23;;;;;;;8.84;72.56;94385.97;2986493;39;20476;-72
2021/04/14 01:27:46;;;;;;;2.58;1.40;;;;;;;8.82;73.19;94386.16;2992250;39;20422;-73
2021/04/14 01:29:48;;;;;;;3.03;1.05;;;;;;;8.81;72.50;94393.16;2992751;39;20059;-72
2021/04/14 01:31:49;;;;;;;1.92;1.20;;;;;;;8.81;73.06;94394.94;2981882;39;20407;-74
2021/04/14 01:33:51;;;;;;;2.67;1.23;;;;;;;8.78;72.36;94403.13;2985235;39;20144;-71
2021/04/14 01:35:52;;;;;;;2.13;1.17;;;;;;;8.71;72.10;94415.97;2990048;39;20053;-73
2021/04/14 01:37:53;;;;;;;4.40;0.90;;;;;;;8.65;72.49;94408.75;2987883;39;20065;-72
2021/04/14 01:39:55;;;;;;;0.95;0.60;;;;;;;8.61;72.21;94408.22;2981911;39;20144;-71
2021/04/14 01:41:56;;;;;;;2.63;0.90;;;;;;;8.48;72.61;94400.00;2989014;39;20131;-71
2021/04/14 01:43:57;;;;;;;2.55;0.80;;;;;;;8.37;71.92;94392.41;2981665;39;20051;-71
2021/04/14 01:45:58;;;;;;;3.33;0.90;;;;;;;8.35;72.18;94389.13;2991328;39;20049;-73
2021/04/14 01:48:00;;;;;;;0.93;0.60;;;;;;;8.37;72.24;94381.94;2990965;39;20059;-73
2021/04/14 01:50:02;;;;;;;1.23;0.63;;;;;;;8.48;71.94;94380.91;2975060;39;20047;-72
2021/04/14 01:52:03;;;;;;;0.68;0.38;;;;;;;8.31;69.98;94367.72;2991095;39;20589;-72
2021/04/14 01:54:05;;;;;;;0.73;0.50;;;;;;;8.15;70.66;94358.00;2991506;39;20046;-71
2021/04/14 01:56:06;;;;;;;0.70;0.50;;;;;;;8.17;70.50;94336.94;2992925;39;20061;-72
2021/04/14 01:58:11;;;;;;;0.22;0.22;;;;;;;8.23;69.77;94345.97;2981549;39;20067;-86
2021/04/14 02:00:20;;;;;;;0.43;0.35;;;;;;;8.28;69.87;94349.75;2994364;39;20035;-86
2021/04/14 02:02:21;;;;;;;0.35;0.30;;;;;;;8.26;68.89;94354.31;2988479;39;20499;-85
2021/04/14 02:04:23;;;;;;;1.02;0.35;;;;;;;8.26;69.01;94348.25;2991011;39;20043;-85
2021/04/14 02:06:24;;;;;;;0.47;0.40;;;;;;;8.32;69.77;94350.25;2972635;39;20136;-84
2021/04/14 02:08:25;;;;;;;0.45;0.40;;;;;;;8.42;68.92;94353.63;2988775;39;20471;-85
2021/04/14 02:10:29;;;;;;;0.43;0.30;;;;;;;8.46;69.61;94344.50;2988202;39;20381;-84
2021/04/14 02:12:31;;;;;;;0.70;0.50;;;;;;;8.41;69.14;94344.16;2999177;39;20030;-85
2021/04/14 02:14:32;;;;;;;1.20;0.47;;;;;;;8.37;68.27;94341.00;2987105;39;20044;-87
2021/04/14 02:16:33;;;;;;;0.85;0.40;;;;;;;8.45;68.88;94339.44;2998260;39;20319;-84
2021/04/14 02:18:35;;;;;;;0.73;0.40;;;;;;;8.47;68.44;94325.25;2996298;39;20065;-86
2021/04/14 02:20:37;;;;;;;1.20;0.52;;;;;;;8.46;67.49;94322.81;2986786;39;20048;-85
2021/04/14 02:22:38;;;;;;;0.70;0.40;;;;;;;8.45;67.81;94321.97;2987238;39;20083;-86
2021/04/14 02:24:40;;;;;;;0.68;0.40;;;;;;;8.47;67.99;94312.19;2988009;39;20059;-85
2021/04/14 02:26:41;;;;;;;0.60;0.40;;;;;;;8.46;66.82;94314.97;2979863;39;20112;-86
2021/04/14 02:28:47;;;;;;;0.70;0.40;;;;;;;8.42;67.90;94319.69;3005114;39;20107;-85
2021/04/14 02:30:49;;;;;;;0.68;0.40;;;;;;;8.36;67.24;94318.47;2987648;39;20317;-85
2021/04/14 02:32:50;;;;;;;1.80;0.63;;;;;;;8.32;68.04;94324.16;2969588;40;20040;-87
2021/04/14 02:34:51;;;;;;;0.73;0.50;;;;;;;8.22;68.20;94321.66;2986162;39;20092;-86
2021/04/14 02:36:53;;;;;;;0.60;0.47;;;;;;;8.24;68.36;94324.09;2982918;39;20117;-84
2021/04/14 02:38:54;;;;;;;1.48;0.68;;;;;;;8.23;68.09;94327.69;2985815;39;20405;-72
2021/04/14 02:40:55;;;;;;;1.00;0.60;;;;;;;8.25;67.75;94320.53;2991411;39;20058;-71
2021/04/14 02:42:57;;;;;;;1.10;0.60;;;;;;;8.31;67.67;94318.13;2992448;39;20408;-72
2021/04/14 02:44:58;;;;;;;0.70;0.40;;;;;;;8.32;67.81;94318.94;2991662;39;20061;-73
2021/04/14 02:46:59;;;;;;;1.02;0.50;;;;;;;8.30;67.73;94326.94;2983033;39;20124;-74
2021/04/14 02:49:01;;;;;;;0.57;0.40;;;;;;;8.17;67.55;94322.13;2986169;39;20307;-72
2021/04/14 02:51:03;;;;;;;1.25;0.52;;;;;;;8.15;68.13;94321.47;2992176;39;20099;-71
2021/04/14 02:53:05;;;;;;;1.80;0.60;;;;;;;8.05;68.10;94319.94;2992293;39;20063;-71
2021/04/14 02:55:08;;;;;;;1.00;0.60;;;;;;;8.05;68.01;94322.53;2980553;39;20470;-71
2021/04/14 02:57:10;;;;;;;0.60;0.50;;;;;;;7.99;68.72;94319.56;2991219;39;20319;-70
2021/04/14 02:59:11;;;;;;;1.83;0.60;;;;;;;8.02;68.45;94318.41;2991831;39;20346;-74
2021/04/14 03:01:14;;;;;;;0.88;0.57;;;;;;;8.07;68.24;94305.75;2979444;39;20051;-86
2021/04/14 03:03:15;;;;;;;2.25;0.80;;;;;;;8.10;67.99;94315.88;2995628;39;20041;-84
2021/04/14 03:05:20;;;;;;;1.42;0.70;;;;;;;8.12;68.15;94311.31;2995515;39;20279;-84
2021/04/14 03:07:21;;;;;;;2.10;0.90;;;;;;;8.15;67.95;94313.63;2987714;39;20075;-83
2021/04/14 03:09:22;;;;;;;1.40;0.90;;;;;;;8.23;67.63;94312.03;2999488;39;20455;-84
2021/04/14 03:11:24;;;;;;;1.08;0.70;;;;;;;8.26;67.51;94306.50;2995966;39;20051;-85
2021/04/14 03:13:25;;;;;;;1.73;0.85;;;;;;;8.29;67.80;94306.22;2998737;39;20099;-85
2021/04/14 03:15:33;;;;;;;1.23;0.70;;;;;;;8.30;68.19;94311.28;2996211;39;20095;-84
2021/04/14 03:17:34;;;;;;;1.60;0.80;;;;;;;8.33;68.05;94305.75;2986266;39;20083;-84
2021/04/14 03:19:36;;;;;;;3.13;1.00;;;;;;;8.33;67.53;94313.56;2979143;39;20078;-83
2021/04/14 03:21:37;;;;;;;2.03;0.80;;;;;;;8.32;67.80;94311.09;2995334;39;20074;-83
2021/04/14 03:23:38;;;;;;;1.42;0.70;;;;;;;8.36;67.30;94304.59;2997963;39;20383;-83
2021/04/14 03:25:40;;;;;;;1.60;1.00;;;;;;;8.37;66.91;94308.88;3003621;39;20031;-84
2021/04/14 03:27:41;;;;;;;1.73;0.90;;;;;;;8.43;67.17;94310.88;2980421;39;20137;-86
2021/04/14 03:29:42;;;;;;;1.58;0.98;;;;;;;8.46;67.23;94317.59;2969091;40;20144;-84
2021/04/14 03:31:43;;;;;;;1.42;0.85;;;;;;;8.48;67.02;94307.81;2992274;39;20054;-84
2021/04/14 03:33:45;;;;;;;1.80;0.73;;;;;;;8.29;67.97;94314.84;2995323;39;20403;-84
2021/04/14 03:35:46;;;;;;;1.50;0.82;;;;;;;8.01;68.67;94316.78;2995349;39;20074;-85
2021/04/14 03:37:47;;;;;;;2.70;1.17;;;;;;;7.88;68.74;94311.97;2995678;39;20130;-85
2021/04/14 03:39:49;;;;;;;2.17;1.05;;;;;;;7.82;69.04;94298.72;2985756;39;20427;-87
2021/04/14 03:41:50;;;;;;;1.77;1.00;;;;;;;7.64;70.12;94306.59;2977795;39;20062;-85
2021/04/14 03:43:54;;;;;;;3.05;1.33;;;;;;;7.67;70.72;94308.88;2987416;39;20067;-83
2021/04/14 03:45:58;;;;;;;;;;;;;;;7.73;70.51;94301.28;2997238;39;20081;-86
2021/04/14 03:47:59;;;;;;;2.92;1.70;;;;;;;7.64;70.31;94307.41;2986365;39;20221;-84
2021/04/14 03:50:01;;;;;;;3.47;1.90;;;;;;;7.58;69.94;94308.81;2995028;39;20371;-86
2021/04/14 03:52:03;;;;;;;4.28;2.20;;;;;;;7.67;70.16;94317.50;2992817;39;20070;-85
2021/04/14 03:54:04;;;;;;;3.80;1.75;;;;;;;7.51;69.87;94310.38;2980411;39;20055;-85
2021/04/14 03:56:24;;;;;;;3.58;2.00;;;;;;;7.50;70.53;94305.31;2988075;39;20080;-86
2021/04/14 03:58:26;;;;;;;5.57;2.00;;;;;;;7.49;70.60;94306.28;2996936;39;20039;-85
2021/04/14 04:00:27;;;;;;;3.95;1.60;;;;;;;7.49;70.30;94311.50;2988870;39;20116;-84
2021/04/14 04:02:29;;;;;;;5.13;2.00;;;;;;;7.54;69.53;94304.06;2990253;39;20060;-85
2021/04/14 04:04:30;;;;;;;4.35;2.30;;;;;;;7.58;70.17;94308.00;2978440;39;20114;-86
2021/04/14 04:06:31;;;;;;;4.53;2.50;;;;;;;7.76;70.22;94318.41;2972046;40;20078;-86
2021/04/14 04:08:32;;;;;;;5.97;2.78;;;;;;;7.97;70.60;94320.69;2985886;39;20039;-86
2021/04/14 04:10:33;;;;;;;5.00;2.78;;;;;;;8.00;69.54;94322.97;2986103;39;20028;-86
2021/04/14 04:12:35;;;;;;;6.22;3.60;;;;;;;8.16;69.65;94322.28;2995924;39;20090;-87
2021/04/14 04:14:46;;;;;;;6.50;4.15;;;;;;;8.26;68.67;94323.00;2978274;39;20034;-85
2021/04/14 04:16:47;;;;;;;8.77;4.35;;;;;;;7.86;69.55;94331.38;2995206;39;20055;-84
2021/04/14 04:18:50;;;;;;;5.72;3.50;;;;;;;7.00;72.03;94329.25;3000446;39;20425;-87
2021/04/14 04:20:52;;;;;;;6.50;3.88;;;;;;;6.43;74.68;94345.00;2981379;39;20133;-87
2021/04/14 04:22:53;;;;;;;7.47;4.60;;;;;;;6.06;75.86;94343.19;2996881;39;20042;-82
2021/04/14 04:24:55;;;;;;;6.50;4.00;;;;;;;6.03;76.58;94336.50;2999724;39;20071;-85
2021/04/14 04:26:56;;;;;;;6.78;4.65;;;;;;;6.13;76.56;94342.50;2997626;39;20028;-88
2021/04/14 04:28:57;;;;;;;8.23;4.57;;;;;;;6.21;77.43;94335.75;2987764;39;20048;-86
2021/04/14 04:30:58;;;;;;;7.18;4.20;;;;;;;6.35;76.74;94337.91;2998371;39;20032;-86
2021/04/14 04:33:00;;;;;;;6.80;3.83;;;;;;;6.47;76.43;94343.75;2988376;39;20056;-85
2021/04/14 04:35:04;;;;;;;9.00;5.32;;;;;;;6.71;76.51;94340.63;2999520;39;20047;-85
2021/04/14 04:37:05;;;;;;;9.43;4.45;;;;;;;6.76;76.21;94343.63;2990335;39;20397;-87
2021/04/14 04:39:06;;;;;;;7.20;4.25;;;;;;;6.91;76.24;94347.41;2997798;39;20061;-85
2021/04/14 04:41:07;;;;;;;5.13;3.70;;;;;;;7.08;76.33;94350.19;2991334;39;20117;-85
2021/04/14 04:43:10;;;;;;;5.65;3.80;;;;;;;6.94;76.74;94349.69;2997326;39;20065;-86
2021/04/14 04:45:11;;;;;;;7.47;4.38;;;;;;;6.90;77.03;94357.94;2988051;39;20060;-85
2021/04/14 04:47:13;;;;;;;7.30;3.63;;;;;;;6.62;78.02;94373.53;2997270;39;20105;-86
2021/04/14 04:49:14;;;;;;;7.90;4.20;;;;;;;6.50;79.42;94361.69;2997131;39;20059;-85
2021/04/14 04:51:15;;;;;;;6.47;4.45;;;;;;;6.56;79.23;94376.75;2997040;39;20159;-87
2021/04/14 04:53:20;;;;;;;6.15;4.13;;;;;;;6.63;79.11;94385.63;2991598;39;20028;-87
2021/04/14 04:55:21;;;;;;;7.32;4.43;;;;;;;6.65;78.78;94372.47;2997789;39;20086;-86
2021/04/14 04:57:22;;;;;;;7.60;4.18;;;;;;;6.86;77.82;94377.44;2989930;39;20051;-87
2021/04/14 04:59:24;;;;;;;6.50;4.53;;;;;;;7.09;77.38;94385.69;2996720;39;20039;-86
2021/04/14 05:01:26;;;;;;;6.35;4.47;;;;;;;6.99;76.91;94388.34;2997250;39;20092;-86
2021/04/14 05:03:31;;;;;;;6.30;4.57;;;;;;;6.61;77.90;94399.75;2987978;39;20055;-88
2021/04/14 05:05:36;;;;;;;18.30;10.63;;;;;;;6.50;78.58;94396.34;2989082;39;20035;-88
2021/04/14 05:07:37;;;;;;;5.25;4.18;;;;;;;5.92;80.31;94404.22;2991997;39;20139;-85
2021/04/14 05:09:38;;;;;;;7.35;5.55;;;;;;;5.48;81.49;94401.19;3000062;39;20057;-86
2021/04/14 05:11:39;;;;;;;6.13;4.88;;;;;;;5.62;81.54;94398.19;2997831;39;20079;-87
2021/04/14 05:13:41;;;;;;;8.88;5.70;;;;;;;5.59;81.24;94408.84;2987432;39;20095;-87
2021/04/14 05:15:42;;;;;;;6.72;5.38;;;;;;;5.34;81.65;94408.41;2997080;39;20248;-85
2021/04/14 05:17:43;;;;;;;7.15;5.63;;;;;;;5.16;82.92;94402.22;2998757;39;20071;-78
2021/04/14 05:19:45;;;;;;;7.75;5.10;;;;;;;5.36;82.20;94412.69;2991250;39;20113;-71
2021/04/14 05:21:46;;;;;;;7.72;5.65;;;;;;;5.55;81.49;94412.69;2984829;39;20091;-73
2021/04/14 05:23:49;;;;;;;8.55;5.45;;;;;;;5.81;80.22;94415.59;2984084;39;20055;-73
2021/04/14 05:25:50;;;;;;;8.07;5.75;;;;;;;5.24;80.71;94417.16;2974212;39;20222;-72
2021/04/14 05:27:54;;;;;;;6.95;5.10;;;;;;;5.11;81.39;94418.22;2983232;39;20360;-71
2021/04/14 05:29:55;;;;;;;;;;;;;;;4.75;82.35;94413.56;2981832;39;20059;-73
2021/04/14 05:31:58;;;;;;;7.10;5.07;;;;;;;4.58;82.57;94422.78;2990914;39;19936;-73
2021/04/14 05:33:59;;;;;;;7.95;5.72;;;;;;;4.50;83.70;94410.47;2986455;39;20043;-74
2021/04/14 05:36:01;;;;;;;7.60;5.20;;;;;;;4.65;83.46;94416.16;2986614;39;20070;-88
2021/04/14 05:38:02;;;;;;;7.50;5.28;;;;;;;4.81;82.72;94416.47;3000888;39;20079;-87
2021/04/14 05:40:04;;;;;;;6.55;4.60;;;;;;;4.99;81.29;94421.03;3000341;39;20062;-89
2021/04/14 05:42:06;;;;;;;6.38;4.97;;;;;;;4.80;81.67;94416.63;2988642;39;20042;-86
2021/04/14 05:44:07;;;;;;;6.70;4.53;;;;;;;4.74;81.42;94423.16;2997062;39;20075;-90
2021/04/14 05:46:12;;;;;;;6.80;4.40;;;;;;;4.69;81.14;94430.50;2986998;39;20067;-86
2021/04/14 05:48:14;;;;;;;5.25;4.03;;;;;;;4.38;80.97;94427.06;2997174;39;20055;-89
2021/04/14 05:50:19;;;;;;;5.00;3.88;;;;;;;4.58;80.54;94422.78;2997054;39;20403;-88
2021/04/14 05:52:20;;;;;;;4.75;3.50;;;;;;;4.84;79.92;94428.34;2987609;39;20055;-90
2021/04/14 05:54:21;;;;;;;3.50;2.60;;;;;;;4.60;79.69;94431.25;2996892;39;20047;-91
2021/04/14 05:56:23;;;;;;;4.65;2.95;;;;;;;4.98;79.61;94419.41;2997107;39;20319;-88
2021/04/14 05:58:24;;;;;;;4.07;2.92;;;;;;;5.15;77.07;94421.38;2979059;39;20048;-88
2021/04/14 06:00:26;;;;;;;3.40;2.60;;;;;;;5.37;75.59;94427.28;2987367;39;20112;-88
2021/04/14 06:02:28;;;;;;;3.35;2.58;;;;;;;5.04;76.88;94421.47;2997497;39;20324;-90
2021/04/14 06:04:29;;;;;;;3.42;2.55;;;;;;;5.42;76.08;94425.94;2996887;39;20307;-85
2021/04/14 06:06:30;;;;;;;2.88;2.10;;;;;;;5.61;74.40;94425.13;2979223;40;20056;-86
2021/04/14 06:08:32;;;;;;;2.63;2.08;;;;;;;5.60;73.08;94441.69;2992279;39;20353;-90
2021/04/14 06:10:35;;;;;;;2.90;2.25;;;;;;;5.66;73.41;94441.16;2987946;39;20063;-89
2021/04/14 06:12:37;;;;;;;3.97;2.65;;;;;;;5.63;72.88;94433.59;2987761;39;20051;-87
2021/04/14 06:14:38;;;;;;;2.78;2.03;;;;;;;5.49;73.16;94454.81;2997018;39;20091;-86
2021/04/14 06:16:39;;;;;;;2.65;2.17;;;;;;;4.93;75.39;94448.34;2988066;39;20281;-87
2021/04/14 06:18:43;;;;;;;4.20;1.85;;;;;;;4.99;75.44;94459.97;2997286;39;20046;-86
2021/04/14 06:20:44;;;;;;;3.53;2.15;;;;;;;5.04;74.24;94458.66;2988617;39;20042;-88
2021/04/14 06:22:45;;;;;;;3.60;2.28;;;;;;;5.10;74.87;94452.13;2998186;39;20070;-85
2021/04/14 06:24:47;;;;;;;2.72;2.22;;;;;;;5.19;73.78;94448.72;3004676;39;20380;-88
2021/04/14 06:26:54;;;;;;;2.88;2.22;;;;;;;5.16;73.99;94450.75;2993090;39;20057;-87
2021/04/14 06:28:55;;;;;;;5.15;2.10;;;;;;;5.23;73.98;94475.25;2991919;39;20407;-91
2021/04/14 06:30:57;;;;;;;4.07;2.10;;;;;;;5.35;73.82;94466.38;2988108;39;20064;-89
2021/04/14 06:32:58;;;;;;;3.88;2.00;;;;;;;5.42;73.03;94464.06;2987743;39;20090;-88
2021/04/14 06:34:59;;;;;;;2.47;1.90;;;;;;;5.04;74.75;94478.59;2979504;40;20036;-88
2021/04/14 06:37:01;;;;;;;4.43;2.47;;;;;;;5.13;74.76;94470.81;2997162;39;20050;-88
2021/04/14 06:39:04;;;;;;;3.63;2.20;;;;;;;4.56;75.62;94473.97;2997296;39;20051;-87
2021/04/14 06:42:26;;;;;;;5.53;3.55;;;;;;;4.55;75.94;94474.94;2997331;39;20043;-88
2021/04/14 06:44:05;;;;;;;3.55;2.22;;;;;;;4.09;77.12;94490.75;2988692;39;20111;-87
2021/04/14 06:46:11;;;;;;;3.25;2.00;;;;;;;4.26;77.20;94467.81;2997678;39;20043;-86
2021/04/14 06:48:40;;;;;;;3.20;2.05;;;;;;;4.21;77.47;94477.72;2989253;39;20067;-88
2021/04/14 06:50:49;;;;;;;5.68;2.72;;;;;;;4.62;76.08;94494.22;2984124;39;20442;-86
2021/04/14 06:52:59;;;;;;;3.03;2.20;;;;;;;4.25;76.80;94482.53;2981416;39;20060;-88
2021/04/14 06:55:05;;;;;;;3.67;2.65;;;;;;;4.44;76.26;94483.63;2980143;40;20507;-87
2021/04/14 06:57:15;;;;;;;4.45;2.28;;;;;;;4.73;75.43;94483.75;2969198;39;20052;-73
2021/04/14 06:59:21;;;;;;;4.38;2.75;;;;;;;4.71;75.67;94481.31;2989660;39;20062;-74
2021/04/14 07:01:26;;;;;;;3.20;2.25;;;;;;;4.68;74.92;94485.94;2977763;39;20044;-72
2021/04/14 07:03:32;;;;;;;4.28;2.20;;;;;;;4.45;75.18;94480.06;2982462;39;20453;-72
2021/04/14 07:06:05;;;;;;;6.03;2.53;;;;;;;4.24;75.80;94487.88;2980400;39;20039;-72
2021/04/14 07:08:31;;;;;;;4.35;3.10;;;;;;;4.50;74.71;94493.50;2979310;39;20059;-74
2021/04/14 07:10:36;;;;;;;3.50;2.38;;;;;;;4.62;74.44;94494.22;2983637;39;20051;-72
2021/04/14 07:12:38;;;;;;;4.43;2.85;;;;;;;4.43;75.37;94506.16;2982120;39;20095;-74
2021/04/14 07:14:39;;;;;;;3.70;2.53;;;;;;;4.48;74.81;94498.78;2978616;39;20059;-73
2021/04/14 07:17:05;;;;;;;7.30;4.40;;;;;;;4.39;75.49;94494.38;2985790;39;20048;-73
2021/04/14 07:19:10;;;;;;;4.35;3.15;;;;;;;4.04;75.10;94512.78;2988268;39;20055;-89
2021/04/14 07:21:18;;;;;;;7.28;4.35;;;;;;;3.94;76.86;94512.72;2979108;39;20036;-87
2021/04/14 07:23:54;;;;;;;9.00;4.72;;;;;;;4.00;76.81;94506.22;2987164;39;20448;-88
2021/04/14 07:26:09;;;;;;;7.22;4.10;;;;;;;4.41;75.55;94520.16;2981580;39;20088;-88
2021/04/14 07:28:34;;;;;;;4.10;2.85;;;;;;;4.82;73.16;94508.97;2997182;39;20027;-88
2021/04/14 07:30:39;;;;;;;4.20;2.35;;;;;;;4.61;71.97;94503.78;2996689;39;20070;-85
2021/04/14 07:32:40;;;;;;;4.78;2.40;;;;;;;4.29;72.80;94517.63;2986959;39;20385;-90
2021/04/14 07:34:57;;;;;;;3.97;2.60;;;;;;;4.09;73.23;94532.22;2986932;39;20036;-89
2021/04/14 07:37:13;;;;;;;6.25;2.90;;;;;;;4.27;74.05;94516.94;2990820;39;20031;-87
2021/04/14 07:39:24;;;;;;;3.70;2.42;;;;;;;4.30;72.81;94528.81;2984050;39;20051;-87
2021/04/14 07:41:51;;;;;;;6.35;2.80;;;;;;;4.03;73.53;94524.94;2987520;39;20412;-89
2021/04/14 07:44:22;;;;;;;3.50;2.10;;;;;;;4.02;73.53;94522.47;2968706;39;20071;-74
2021/04/14 07:46:25;;;;;;;5.32;2.88;;;;;;;3.86;74.17;94531.47;2961335;40;20339;-74
2021/04/14 07:48:39;;;;;;;3.60;2.38;;;;;;;3.80;73.83;94525.94;2979223;39;20048;-73
2021/04/14 07:50:46;;;;;;;4.07;2.38;;;;;;;4.13;73.31;94521.59;2996825;39;20047;-73
2021/04/14 07:52:48;;;;;;;3.53;2.40;;;;;;;4.07;73.34;94535.91;2982745;39;20360;-74
2021/04/14 07:54:51;;;;;;;5.03;2.75;;;;;;;4.19;72.50;94527.09;2996316;39;20082;-72
2021/04/14 07:56:56;;;;;;;2.70;2.00;;;;;;;4.19;73.39;94523.69;2994922;39;20307;-73
2021/04/14 07:59:02;;;;;;;3.92;2.58;;;;;;;4.06;73.91;94522.09;2975592;39;20406;-73
2021/04/14 08:01:10;;;;;;;3.63;2.00;;;;;;;4.13;73.03;94524.19;2990669;39;20051;-75
2021/04/14 08:03:28;;;;;;;2.83;1.98;;;;;;;4.31;74.12;94526.13;2986059;39;20063;-72
2021/04/14 08:05:33;;;;;;;3.95;1.85;;;;;;;4.41;72.49;94526.19;2969653;39;20076;-74
2021/04/14 08:07:42;;;;;;;4.50;2.15;;;;;;;4.61;72.44;94521.94;2989694;39;20437;-72
2021/04/14 08:09:58;;;;;;;3.05;2.28;;;;;;;4.37;71.87;94519.63;2981916;39;20075;-73
2021/04/14 08:12:06;;;;;;;4.38;2.80;;;;;;;4.03;73.31;94527.53;2992089;39;20341;-74
2021/04/14 08:14:35;;;;;;;8.40;3.75;;;;;;;4.08;73.60;94519.38;2982200;39;20568;-73
2021/04/14 08:16:41;;;;;;;7.82;3.30;;;;;;;4.33;73.03;94514.81;2989408;39;20052;-74
2021/04/14 08:18:58;;;;;;;5.88;3.35;;;;;;;4.09;73.67;94550.38;2993168;39;20404;-72
2021/04/14 08:21:08;;;;;;;4.80;2.40;;;;;;;4.22;72.95;94534.66;2982938;39;20105;-74
2021/04/14 08:23:25;;;;;;;2.97;2.35;;;;;;;4.37;72.62;94542.13;2992954;39;20420;-73
2021/04/14 08:25:31;;;;;;;3.78;1.77;;;;;;;4.71;71.04;94538.41;2984846;39;20062;-74
2021/04/14 08:27:38;;;;;;;4.22;2.10;;;;;;;4.53;70.91;94537.31;2985332;39;20070;-73
2021/04/14 08:29:40;;;;;;;2.78;1.60;;;;;;;4.66;70.47;94535.34;2985510;39;20065;-72
2021/04/14 08:31:46;;;;;;;4.95;2.40;;;;;;;4.70;70.86;94535.94;2973252;39;20051;-74
2021/04/14 08:33:52;;;;;;;6.05;2.58;;;;;;;4.89;70.33;94530.84;2976973;39;20059;-73
2021/04/14 08:35:54;;;;;;;4.13;2.30;;;;;;;5.32;68.92;94527.22;2968822;39;20055;-75
2021/04/14 08:38:10;;;;;;;3.25;1.98;;;;;;;5.38;68.21;94525.03;2979475;39;20040;-73
2021/04/14 08:40:25;;;;;;;2.92;1.60;;;;;;;5.37;67.13;94518.22;2982537;39;20063;-73
2021/04/14 08:42:31;;;;;;;4.32;2.67;;;;;;;4.84;68.36;94529.59;2986979;39;20316;-73
2021/04/14 08:44:34;;;;;;;6.25;2.63;;;;;;;5.12;69.31;94526.31;2983729;39;20055;-74
2021/04/14 08:46:40;;;;;;;6.47;2.85;;;;;;;5.46;67.61;94520.00;2970891;39;20140;-72
2021/04/14 08:48:48;;;;;;;3.50;2.20;;;;;;;4.83;67.99;94505.41;2983358;39;20442;-72
2021/04/14 08:50:53;;;;;;;5.10;3.53;;;;;;;5.02;68.15;94517.66;2982173;39;20079;-71
2021/04/14 08:52:58;;;;;;;3.88;2.08;;;;;;;5.23;67.85;94517.63;2985670;39;20059;-73
2021/04/14 08:55:00;;;;;;;4.07;2.55;;;;;;;5.10;67.83;94515.25;2991832;39;20134;-73
2021/04/14 08:57:05;;;;;;;4.50;2.63;;;;;;;4.97;67.81;94521.59;2982271;39;20118;-75
2021/04/14 08:59:08;;;;;;;3.72;2.03;;;;;;;5.18;68.14;94517.19;2983536;39;20055;-74
2021/04/14 09:01:14;;;;;;;4.65;3.13;;;;;;;5.31;68.53;94507.41;2976660;39;20095;-74
2021/04/14 09:03:19;;;;;;;5.30;2.88;;;;;;;5.11;67.90;94518.66;2987876;39;20059;-91
2021/04/14 09:05:21;;;;;;;6.25;2.40;;;;;;;4.81;68.53;94504.72;2991670;39;20036;-87
2021/04/14 09:07:37;;;;;;;4.60;2.78;;;;;;;4.89;69.16;94501.50;2980237;40;20032;-88
2021/04/14 09:09:48;;;;;;;3.28;2.30;;;;;;;4.93;68.50;94500.28;2988986;39;20063;-86
2021/04/14 09:12:04;;;;;;;4.30;2.60;;;;;;;5.09;69.72;94511.00;2997362;39;20036;-87
2021/04/14 09:14:17;;;;;;;6.05;3.25;;;;;;;5.41;67.62;94493.63;2996471;39;20138;-86
2021/04/14 09:16:28;;;;;;;5.30;3.13;;;;;;;5.31;67.52;94502.22;2996307;39;20042;-87
2021/04/14 09:18:38;;;;;;;8.18;3.15;;;;;;;5.06;67.98;94500.88;2989643;39;20027;-89
2021/04/14 09:20:41;;;;;;;7.13;3.05;;;;;;;5.41;66.76;94504.00;2996245;39;20487;-88
2021/04/14 09:22:42;;;;;;;2.85;2.03;;;;;;;5.65;66.63;94496.66;2987818;39;20062;-89
2021/04/14 09:24:47;;;;;;;4.13;2.38;;;;;;;5.12;66.66;94510.75;2998929;39;20028;-87
2021/04/14 09:26:54;;;;;;;3.92;2.40;;;;;;;5.17;66.82;94501.75;2990362;39;20032;-87
2021/04/14 09:28:55;;;;;;;4.13;2.83;;;;;;;5.24;66.21;94503.66;2997468;39;20045;-89
2021/04/14 09:31:07;;;;;;;7.20;2.80;;;;;;;5.46;66.04;94496.63;2988532;39;20087;-85
2021/04/14 09:33:15;;;;;;;5.75;2.92;;;;;;;5.50;66.07;94487.63;2980136;39;20055;-89
2021/04/14 09:35:29;;;;;;;3.42;2.22;;;;;;;5.93;65.38;94483.84;2998560;39;20051;-88
2021/04/14 09:37:33;;;;;;;3.90;2.20;;;;;;;6.26;64.00;94487.88;2996533;39;20087;-74
2021/04/14 09:39:41;;;;;;;9.55;3.03;;;;;;;6.32;64.13;94494.28;2983602;39;20048;-74
2021/04/14 09:41:43;;;;;;;5.40;2.38;;;;;;;5.86;63.79;94506.97;2991818;39;20066;-72
2021/04/14 09:43:45;;;;;;;7.38;3.15;;;;;;;5.29;66.96;94508.47;2991024;39;20146;-74
2021/04/14 09:46:06;;;;;;;9.98;3.40;;;;;;;5.32;65.68;94497.81;2979652;39;20073;-74
2021/04/14 09:48:16;;;;;;;4.28;2.60;;;;;;;5.17;66.99;94486.16;2987342;39;20051;-73
2021/04/14 09:50:27;;;;;;;5.63;3.55;;;;;;;5.32;66.81;94483.06;2984075;39;20055;-74
2021/04/14 09:52:46;;;;;;;6.63;3.10;;;;;;;5.54;65.60;94495.00;2995160;39;20055;-88
2021/04/14 09:54:49;;;;;;;9.15;4.30;;;;;;;5.44;65.60;94490.75;2993450;39;20039;-89